Terminal Aerodrome Forecast
Issued by NWS

Home | Current Version | Previous Version | Text Only | Print | Product List | Glossary On
Versions: 1 2 3 4 5 6 7 8 9 10 11 12 13 14 15 16 17
000
FTUS43 KOAX 272152 AAB
TAFCDR
TAF AMD
KCDR 272152Z 2722/2818 33008KT P6SM BKN100
      TEMPO 2722/2723 33015G25KT 3SM TSRA BKN025 OVC050CB=

USA.gov is the U.S. government's official web portal to all federal, state and local government web resources and services.